Singers Glen, Virginia
Current Conditions -  °F | °C
As of 10:55 AM on Friday 24 Oct 2014 (Local Time) from KVBW Reporting Station
Clear Clear  
Wind Chill: 54°   Ceiling: Unl
Heat Index: 54°   Visibility: 10mi
Dew Point: 42°   Wind: 3mph
Humidity: 65%   Direction: 120°ESE
Pressure: 30.04"   Gusts: NA
Location:  38.55°N, 78.91°W
Report Text: KVBW 241455Z AUTO 12003KT 10SM CLR 12/06 A3004 RMK AO2 T01200055
Loading
Personal Weather Stations






























Interactive Weather Map
Tropical Storm Tracking
New forecast layout! Learn more

10-Day Weather Forecast

Advertisements
Track Severe Weather on mobile